createdAt,value
2022-10-05T00:01:30.389Z,7.10
2022-10-05T00:04:11.365Z,7.00
2022-10-05T00:06:39.548Z,6.80
2022-10-05T00:09:18.073Z,8.10
2022-10-05T00:11:46.948Z,7.70
2022-10-05T00:14:18.690Z,7.50
2022-10-05T00:16:47.806Z,7.60
2022-10-05T00:19:34.062Z,7.90
2022-10-05T00:22:10.782Z,7.70
2022-10-05T00:24:39.270Z,7.30
2022-10-05T00:27:13.078Z,6.90
2022-10-05T00:29:45.041Z,7.50
2022-10-05T00:32:13.919Z,6.40
2022-10-05T00:34:43.454Z,7.60
2022-10-05T00:37:12.068Z,7.20
2022-10-05T00:39:41.617Z,8.00
2022-10-05T00:42:26.075Z,7.50
2022-10-05T00:45:13.701Z,7.40
2022-10-05T00:47:41.767Z,6.80
2022-10-05T00:50:47.645Z,7.00
2022-10-05T00:53:31.134Z,6.50
2022-10-05T00:56:14.389Z,6.20
2022-10-05T00:59:22.773Z,7.10
2022-10-05T01:02:24.585Z,6.70
2022-10-05T01:05:02.985Z,7.30
2022-10-05T01:07:50.301Z,6.80
2022-10-05T01:10:42.896Z,6.50
2022-10-05T01:13:30.484Z,6.10
2022-10-05T01:16:10.887Z,6.60
2022-10-05T01:19:20.586Z,6.70
2022-10-05T01:22:00.231Z,7.00
2022-10-05T01:24:45.248Z,6.40
2022-10-05T01:27:49.023Z,6.10
2022-10-05T01:30:22.193Z,6.60
2022-10-05T01:33:11.326Z,6.40
2022-10-05T01:36:02.575Z,6.20
2022-10-05T01:38:36.483Z,6.60
2022-10-05T01:41:46.104Z,6.60
2022-10-05T01:44:25.887Z,6.90
2022-10-05T01:47:00.257Z,6.70
2022-10-05T01:49:47.229Z,6.20
2022-10-05T01:52:43.925Z,6.50
2022-10-05T01:55:21.279Z,5.90
2022-10-05T01:58:16.820Z,6.90
2022-10-05T02:00:52.455Z,6.50
2022-10-05T02:03:38.283Z,6.90
2022-10-05T02:06:16.225Z,6.30
2022-10-05T02:08:49.862Z,6.40
2022-10-05T02:11:19.304Z,6.00
2022-10-05T02:14:10.751Z,6.40
2022-10-05T02:16:42.216Z,6.80
2022-10-05T02:19:35.980Z,6.50
2022-10-05T02:22:17.976Z,7.20
2022-10-05T02:24:53.289Z,6.80
2022-10-05T02:27:28.479Z,6.60
2022-10-05T02:30:03.071Z,6.00
2022-10-05T02:33:09.891Z,5.10
2022-10-05T02:35:38.073Z,5.80
2022-10-05T02:38:11.974Z,5.90
2022-10-05T02:41:06.193Z,5.90
2022-10-05T02:43:40.890Z,6.20
2022-10-05T02:46:29.197Z,5.70
2022-10-05T02:49:12.683Z,5.40
2022-10-05T02:52:14.675Z,5.40
2022-10-05T02:55:15.947Z,5.70
2022-10-05T02:58:12.314Z,4.70
2022-10-05T03:00:55.600Z,5.20
2022-10-05T03:03:38.252Z,5.10
2022-10-05T03:06:25.895Z,5.00
2022-10-05T03:08:59.915Z,4.80
2022-10-05T03:11:50.473Z,4.50
2022-10-05T03:14:27.992Z,4.50
2022-10-05T03:17:14.561Z,4.60
2022-10-05T03:19:59.884Z,3.80
2022-10-05T03:22:56.797Z,4.10
2022-10-05T03:25:39.337Z,4.70
2022-10-05T03:28:22.222Z,4.20
2022-10-05T03:30:59.505Z,4.60
2022-10-05T03:33:35.602Z,3.60
2022-10-05T03:36:07.052Z,4.30
2022-10-05T03:39:00.934Z,4.20
2022-10-05T03:41:43.338Z,3.20
2022-10-05T03:44:24.390Z,4.20
2022-10-05T03:46:58.634Z,3.70
2022-10-05T03:49:50.147Z,3.90
2022-10-05T03:52:39.137Z,3.80
2022-10-05T03:55:31.865Z,4.00
2022-10-05T03:58:15.095Z,3.40
2022-10-05T04:00:54.211Z,3.40
2022-10-05T04:03:49.329Z,3.00
2022-10-05T04:06:25.025Z,3.60
2022-10-05T04:09:06.088Z,3.70
2022-10-05T04:11:40.434Z,3.10
2022-10-05T04:14:28.714Z,3.50
2022-10-05T04:17:04.612Z,3.40
2022-10-05T04:20:00.908Z,3.60
2022-10-05T04:22:37.477Z,3.30
2022-10-05T04:25:24.281Z,3.30
2022-10-05T04:28:11.854Z,3.10
2022-10-05T04:30:45.057Z,3.00
2022-10-05T04:33:13.999Z,2.70
2022-10-05T04:36:15.924Z,3.00
2022-10-05T04:39:02.885Z,3.30
2022-10-05T04:42:04.947Z,2.90
2022-10-05T04:44:42.539Z,3.00
2022-10-05T04:47:14.254Z,2.80
2022-10-05T04:50:13.298Z,3.00
2022-10-05T04:53:34.104Z,3.30
2022-10-05T04:56:39.368Z,4.40
2022-10-05T04:59:49.005Z,2.80
2022-10-05T05:02:33.408Z,3.00
2022-10-05T05:05:01.846Z,2.80
2022-10-05T05:07:50.282Z,2.50
2022-10-05T05:10:49.398Z,2.50
2022-10-05T05:13:25.746Z,3.20
2022-10-05T05:15:57.260Z,3.00
2022-10-05T05:18:50.341Z,3.10
2022-10-05T05:21:58.246Z,3.30
2022-10-05T05:24:55.021Z,2.60
2022-10-05T05:27:32.296Z,2.80
2022-10-05T05:30:14.109Z,3.10
2022-10-05T05:33:06.637Z,3.50
2022-10-05T05:36:05.947Z,3.40
2022-10-05T05:38:48.456Z,2.70
2022-10-05T05:41:29.521Z,3.00
2022-10-05T05:44:22.853Z,2.90
2022-10-05T05:47:05.445Z,2.90
2022-10-05T05:49:53.119Z,3.50
2022-10-05T05:52:49.772Z,3.50
2022-10-05T05:55:30.491Z,3.60
2022-10-05T05:58:28.309Z,3.30
2022-10-05T06:01:16.388Z,3.60
2022-10-05T06:03:58.040Z,3.50
2022-10-05T06:06:31.505Z,3.60
2022-10-05T06:09:11.789Z,3.50
2022-10-05T06:11:54.263Z,3.80
2022-10-05T06:14:25.960Z,3.70
2022-10-05T06:17:03.555Z,3.50
2022-10-05T06:19:36.821Z,3.20
2022-10-05T06:22:25.785Z,2.90
2022-10-05T06:25:17.841Z,3.30
2022-10-05T06:28:11.497Z,3.30
2022-10-05T06:31:02.957Z,3.20
2022-10-05T06:33:46.278Z,3.60
2022-10-05T06:36:22.642Z,3.50
2022-10-05T06:39:12.946Z,3.40
2022-10-05T06:42:05.729Z,3.40
2022-10-05T06:45:20.345Z,2.80
2022-10-05T06:48:10.218Z,3.20
2022-10-05T06:51:12.023Z,2.90
2022-10-05T06:53:48.184Z,2.70
2022-10-05T06:56:57.298Z,2.70
2022-10-05T06:59:51.395Z,2.60
2022-10-05T07:02:30.038Z,2.50
2022-10-05T07:05:10.857Z,2.60
2022-10-05T07:07:59.930Z,2.30
2022-10-05T07:10:44.172Z,1.70
2022-10-05T07:13:40.624Z,2.00
2022-10-05T07:16:32.166Z,2.10
2022-10-05T07:19:26.494Z,1.90
2022-10-05T07:22:30.536Z,2.00
2022-10-05T07:25:35.471Z,2.00
2022-10-05T07:28:15.726Z,1.80
2022-10-05T07:31:09.954Z,1.70
2022-10-05T07:33:51.904Z,1.90
2022-10-05T07:36:55.950Z,1.90
2022-10-05T07:39:58.537Z,2.10
2022-10-05T07:42:52.029Z,1.70
2022-10-05T07:45:25.410Z,1.30
2022-10-05T07:48:01.932Z,1.50
2022-10-05T07:51:03.610Z,1.90
2022-10-05T07:53:40.066Z,1.70
2022-10-05T07:56:21.647Z,1.80
2022-10-05T07:59:03.392Z,1.70
2022-10-05T08:01:37.713Z,1.70
2022-10-05T08:04:20.880Z,1.80
2022-10-05T08:06:53.971Z,2.40
2022-10-05T08:09:30.095Z,1.70
2022-10-05T08:12:31.324Z,1.60
2022-10-05T08:15:25.902Z,1.50
2022-10-05T08:18:01.837Z,1.70
2022-10-05T08:20:37.170Z,1.60
2022-10-05T08:23:19.739Z,1.80
2022-10-05T08:26:07.608Z,1.70
2022-10-05T08:28:38.952Z,1.80
2022-10-05T08:31:30.220Z,1.70
2022-10-05T08:34:21.315Z,1.50
2022-10-05T08:37:08.880Z,2.00
2022-10-05T08:39:49.487Z,1.80
2022-10-05T08:42:27.158Z,1.80
2022-10-05T08:44:59.170Z,2.10
2022-10-05T08:47:46.790Z,1.60
2022-10-05T08:50:35.446Z,1.70
2022-10-05T08:53:23.173Z,1.70
2022-10-05T08:56:28.423Z,1.70
2022-10-05T08:59:22.082Z,1.80
2022-10-05T09:02:00.213Z,1.80
2022-10-05T09:04:41.582Z,1.60
2022-10-05T09:07:24.096Z,1.80
2022-10-05T09:10:17.870Z,1.80
2022-10-05T09:12:59.141Z,1.60
2022-10-05T09:16:04.680Z,1.50
2022-10-05T09:18:52.438Z,1.90
2022-10-05T09:21:35.546Z,1.90
2022-10-05T09:24:09.070Z,1.80
2022-10-05T09:26:52.614Z,1.50
2022-10-05T09:29:46.465Z,1.70
2022-10-05T09:32:52.590Z,1.90
2022-10-05T09:35:49.846Z,2.00
2022-10-05T09:38:25.175Z,1.90
2022-10-05T09:41:12.496Z,1.90
2022-10-05T09:43:55.900Z,1.70
2022-10-05T09:46:45.944Z,1.70
2022-10-05T09:49:52.566Z,1.90
2022-10-05T09:52:46.382Z,1.90
2022-10-05T09:55:21.815Z,1.70
2022-10-05T09:58:12.787Z,1.70
2022-10-05T10:01:39.425Z,1.80
2022-10-05T10:04:26.132Z,1.30
2022-10-05T10:07:15.785Z,1.90
2022-10-05T10:09:54.000Z,1.60
2022-10-05T10:12:31.830Z,1.60
2022-10-05T10:15:38.756Z,1.60
2022-10-05T10:18:25.999Z,1.60
2022-10-05T10:21:18.763Z,1.70
2022-10-05T10:24:00.479Z,1.90
2022-10-05T10:27:18.118Z,1.50
2022-10-05T10:30:09.943Z,1.50
2022-10-05T10:33:13.974Z,1.80
2022-10-05T10:35:57.775Z,1.70
2022-10-05T10:38:36.873Z,1.60
2022-10-05T10:41:08.533Z,1.90
2022-10-05T10:43:37.132Z,1.80
2022-10-05T10:46:12.671Z,1.50
2022-10-05T10:49:03.849Z,1.80
2022-10-05T10:51:53.327Z,1.50
2022-10-05T10:54:25.106Z,1.80
2022-10-05T10:57:03.879Z,2.20
2022-10-05T10:59:44.555Z,1.70
2022-10-05T11:02:25.685Z,1.80
2022-10-05T11:05:15.476Z,1.60
2022-10-05T11:08:08.707Z,1.80
2022-10-05T11:10:59.080Z,1.50
2022-10-05T11:13:42.505Z,1.60
2022-10-05T11:16:23.083Z,2.10
2022-10-05T11:19:39.943Z,2.30
2022-10-05T11:22:51.886Z,1.60
2022-10-05T11:25:56.138Z,1.90
2022-10-05T11:28:52.156Z,1.40
2022-10-05T11:31:35.776Z,1.60
2022-10-05T11:34:10.256Z,1.60
2022-10-05T11:37:03.486Z,1.30
2022-10-05T11:39:56.192Z,1.40
2022-10-05T11:42:36.752Z,1.70
2022-10-05T11:45:25.080Z,1.70
2022-10-05T11:48:11.172Z,1.50
2022-10-05T11:51:10.393Z,1.50
2022-10-05T11:53:48.061Z,1.50
2022-10-05T11:59:26.805Z,1.50
2022-10-05T12:02:18.366Z,1.20
2022-10-05T12:05:21.469Z,1.50
2022-10-05T12:07:52.826Z,1.20
2022-10-05T12:10:44.978Z,1.40
2022-10-05T12:13:37.939Z,1.90
2022-10-05T12:16:27.119Z,1.60
2022-10-05T12:19:03.475Z,1.40
2022-10-05T12:21:34.031Z,1.40
2022-10-05T12:24:07.260Z,1.80
2022-10-05T12:26:55.636Z,1.60
2022-10-05T12:29:41.278Z,1.60
2022-10-05T12:32:29.590Z,1.50
2022-10-05T12:35:36.205Z,1.40
2022-10-05T12:38:19.781Z,1.50
2022-10-05T12:41:08.534Z,1.10
2022-10-05T12:44:04.234Z,1.50
2022-10-05T12:46:46.795Z,1.30
2022-10-05T12:49:36.235Z,1.50
2022-10-05T12:52:32.523Z,1.20
2022-10-05T12:55:12.994Z,1.40
2022-10-05T12:58:19.780Z,1.30
2022-10-05T13:00:57.580Z,1.30
2022-10-05T13:03:33.872Z,1.40
2022-10-05T13:06:17.175Z,1.30
2022-10-05T13:08:45.888Z,1.70
2022-10-05T13:11:33.114Z,1.40
2022-10-05T13:14:43.366Z,1.40
2022-10-05T13:17:37.642Z,1.10
2022-10-05T13:20:34.003Z,1.50
2022-10-05T13:23:08.295Z,1.70
2022-10-05T13:25:49.105Z,1.30
2022-10-05T13:28:37.765Z,1.70
2022-10-05T13:31:14.432Z,1.50
2022-10-05T13:33:48.689Z,1.50
2022-10-05T13:36:17.385Z,1.60
2022-10-05T13:39:29.265Z,1.40
2022-10-05T13:42:15.415Z,1.50
2022-10-05T13:45:17.019Z,1.20
2022-10-05T13:48:22.674Z,1.70
2022-10-05T13:51:08.923Z,1.30
2022-10-05T13:53:53.317Z,1.30
2022-10-05T13:56:26.134Z,1.40
2022-10-05T13:59:16.447Z,1.50
2022-10-05T14:02:12.733Z,1.50
2022-10-05T14:04:47.139Z,1.80
2022-10-05T14:07:30.305Z,1.60
2022-10-05T14:09:59.870Z,1.30
2022-10-05T14:12:28.944Z,1.50
2022-10-05T14:14:58.866Z,1.50
2022-10-05T14:17:33.445Z,1.80
2022-10-05T14:20:17.451Z,1.30
2022-10-05T14:22:53.532Z,1.70
2022-10-05T14:25:23.024Z,1.60
2022-10-05T14:28:30.897Z,1.60
2022-10-05T14:31:12.507Z,1.80
2022-10-05T14:33:44.329Z,2.10
2022-10-05T14:36:34.151Z,2.20
2022-10-05T14:39:05.618Z,1.60
2022-10-05T14:41:37.811Z,1.80
2022-10-05T14:44:09.615Z,1.90
2022-10-05T14:46:40.360Z,1.90
2022-10-05T14:49:21.510Z,2.50
2022-10-05T14:51:51.764Z,2.30
2022-10-05T14:54:57.667Z,2.00
2022-10-05T14:57:57.504Z,1.80
2022-10-05T15:00:31.448Z,2.10
2022-10-05T15:03:10.361Z,1.90
2022-10-05T15:06:01.731Z,2.10
2022-10-05T15:08:50.391Z,2.20
2022-10-05T15:11:52.849Z,2.30
2022-10-05T15:14:26.540Z,2.50
2022-10-05T15:17:02.939Z,2.60
2022-10-05T15:19:37.807Z,2.20
2022-10-05T15:22:42.093Z,2.20
2022-10-05T15:25:38.152Z,2.10
2022-10-05T15:28:34.365Z,2.40
2022-10-05T15:31:10.411Z,2.20
2022-10-05T15:33:50.568Z,1.70
2022-10-05T15:36:36.140Z,1.90
2022-10-05T15:39:20.157Z,1.80
2022-10-05T15:42:35.332Z,1.90
2022-10-05T15:45:11.711Z,2.20
2022-10-05T15:47:42.782Z,2.10
2022-10-05T15:50:14.504Z,2.30
2022-10-05T15:53:10.400Z,1.90
2022-10-05T15:55:59.704Z,2.40
2022-10-05T15:59:25.284Z,2.30
2022-10-05T16:02:01.100Z,2.40
2022-10-05T16:04:47.553Z,2.50
2022-10-05T16:07:50.768Z,2.50
2022-10-05T16:10:24.248Z,3.00
2022-10-05T16:13:22.490Z,2.60
2022-10-05T16:16:02.424Z,2.60
2022-10-05T16:18:50.988Z,3.50
2022-10-05T16:21:53.186Z,2.80
2022-10-05T16:24:50.692Z,2.50
2022-10-05T16:27:20.896Z,3.10
2022-10-05T16:30:02.473Z,2.90
2022-10-05T16:32:38.538Z,3.00
2022-10-05T16:35:36.541Z,3.40
2022-10-05T16:38:19.834Z,3.30
2022-10-05T16:41:03.888Z,3.30
2022-10-05T16:43:58.300Z,3.50
2022-10-05T16:46:40.144Z,3.50
2022-10-05T16:49:20.780Z,3.20
2022-10-05T16:51:59.163Z,3.40
2022-10-05T16:54:56.945Z,3.10
2022-10-05T16:57:41.510Z,3.20
2022-10-05T17:00:26.139Z,3.60
2022-10-05T17:02:59.189Z,3.30
2022-10-05T17:06:01.488Z,3.50
2022-10-05T17:08:49.489Z,4.00
2022-10-05T17:11:36.460Z,4.00
2022-10-05T17:14:16.146Z,4.00
2022-10-05T17:16:51.537Z,3.40
2022-10-05T17:19:22.632Z,3.30
2022-10-05T17:22:27.257Z,3.40
2022-10-05T17:25:07.500Z,3.40
2022-10-05T17:28:17.471Z,3.40
2022-10-05T17:30:50.480Z,3.60
2022-10-05T17:33:32.862Z,3.90
2022-10-05T17:36:05.137Z,3.00
2022-10-05T17:38:35.140Z,3.60
2022-10-05T17:41:16.420Z,4.30
2022-10-05T17:44:21.724Z,3.90
2022-10-05T17:46:59.961Z,3.90
2022-10-05T17:50:16.655Z,4.10
2022-10-05T17:53:55.859Z,4.30
2022-10-05T17:56:29.210Z,3.50
2022-10-05T17:59:09.271Z,3.00
2022-10-05T18:01:44.284Z,3.30
2022-10-05T18:04:21.071Z,3.30
2022-10-05T18:07:02.585Z,3.50
2022-10-05T18:09:51.283Z,3.20
2022-10-05T18:12:26.636Z,2.80
2022-10-05T18:15:09.726Z,3.10
2022-10-05T18:17:46.050Z,3.30
2022-10-05T18:20:32.047Z,2.70
2022-10-05T18:23:09.769Z,2.70
2022-10-05T18:26:20.892Z,2.90
2022-10-05T18:29:14.210Z,3.10
2022-10-05T18:32:06.202Z,3.00
2022-10-05T18:35:08.832Z,3.20
2022-10-05T18:38:12.140Z,3.20
2022-10-05T18:41:05.439Z,3.20
2022-10-05T18:43:56.937Z,3.70
2022-10-05T18:47:00.044Z,3.10
2022-10-05T18:49:53.727Z,3.60
2022-10-05T18:52:37.249Z,3.70
2022-10-05T18:55:12.189Z,3.70
2022-10-05T18:57:59.275Z,3.40
2022-10-05T19:00:51.867Z,3.50
2022-10-05T19:03:25.971Z,3.30
2022-10-05T19:06:15.918Z,3.40
2022-10-05T19:08:50.062Z,3.40
2022-10-05T19:11:40.082Z,3.60
2022-10-05T19:14:45.448Z,3.80
2022-10-05T19:17:46.465Z,4.10
2022-10-05T19:20:25.655Z,3.80
2022-10-05T19:23:30.444Z,3.50
2022-10-05T19:26:07.914Z,3.80
2022-10-05T19:29:09.350Z,3.60
2022-10-05T19:31:48.373Z,4.10
2022-10-05T19:34:35.606Z,3.80
2022-10-05T19:37:34.862Z,4.30
2022-10-05T19:40:21.290Z,3.50
2022-10-05T19:43:08.375Z,3.70
2022-10-05T19:45:45.657Z,3.70
2022-10-05T19:48:40.908Z,3.70
2022-10-05T19:51:34.305Z,3.80
2022-10-05T19:54:12.574Z,3.70
2022-10-05T19:56:50.358Z,3.80
2022-10-05T19:59:22.108Z,3.90
2022-10-05T20:01:53.505Z,3.80
2022-10-05T20:04:35.565Z,3.90
2022-10-05T20:07:04.873Z,3.40
2022-10-05T20:09:52.910Z,4.20
2022-10-05T20:12:23.170Z,3.50
2022-10-05T20:15:37.573Z,3.90
2022-10-05T20:19:15.125Z,4.00
2022-10-05T20:21:56.810Z,3.80
2022-10-05T20:24:27.667Z,3.70
2022-10-05T20:27:13.846Z,4.00
2022-10-05T20:29:44.978Z,4.00
2022-10-05T20:32:18.077Z,3.70
2022-10-05T20:34:47.894Z,3.70
2022-10-05T20:37:18.462Z,3.60
2022-10-05T20:39:48.098Z,3.30
2022-10-05T20:42:16.434Z,3.40
2022-10-05T20:44:44.785Z,2.90
2022-10-05T20:47:13.895Z,3.00
2022-10-05T20:49:42.308Z,3.10
2022-10-05T20:52:15.184Z,3.30
2022-10-05T20:54:43.763Z,2.70
2022-10-05T20:57:13.470Z,2.90
2022-10-05T20:59:41.591Z,2.70
2022-10-05T21:02:10.690Z,2.10
2022-10-05T21:04:41.499Z,2.60
2022-10-05T21:07:10.203Z,2.80
2022-10-05T21:09:39.560Z,2.30
2022-10-05T21:12:07.881Z,3.30
2022-10-05T21:14:37.907Z,2.90
2022-10-05T21:17:06.841Z,2.80
2022-10-05T21:19:39.577Z,2.60
2022-10-05T21:22:09.281Z,2.20
2022-10-05T21:24:39.395Z,2.60
2022-10-05T21:27:10.252Z,2.50
2022-10-05T21:29:41.079Z,2.80
2022-10-05T21:32:11.745Z,3.30
2022-10-05T21:34:41.424Z,3.00
2022-10-05T21:37:09.648Z,2.70
2022-10-05T21:39:37.740Z,2.00
2022-10-05T21:42:06.154Z,3.00
2022-10-05T21:44:34.245Z,2.60
2022-10-05T21:47:02.500Z,2.70
2022-10-05T21:49:31.216Z,2.90
2022-10-05T21:52:01.293Z,3.00
2022-10-05T21:54:29.692Z,2.90
2022-10-05T21:56:58.901Z,3.20
2022-10-05T21:59:29.660Z,3.30
2022-10-05T22:01:57.791Z,3.10
2022-10-05T22:04:26.120Z,2.90
2022-10-05T22:06:55.556Z,3.40
2022-10-05T22:09:23.708Z,2.70
2022-10-05T22:11:51.832Z,2.60
2022-10-05T22:14:19.939Z,3.20
2022-10-05T22:16:48.167Z,3.40
2022-10-05T22:19:19.479Z,3.10
2022-10-05T22:21:47.714Z,3.40
2022-10-05T22:24:15.845Z,3.80
2022-10-05T22:26:46.488Z,3.60
2022-10-05T22:29:16.267Z,3.70
2022-10-05T22:31:48.878Z,3.70
2022-10-05T22:34:18.015Z,3.60
2022-10-05T22:36:47.600Z,4.00
2022-10-05T22:39:16.416Z,3.70
2022-10-05T22:41:44.749Z,3.20
2022-10-05T22:44:13.067Z,3.60
2022-10-05T22:46:41.236Z,3.90
2022-10-05T22:49:09.656Z,3.70
2022-10-05T22:51:37.770Z,3.20
2022-10-05T22:54:06.117Z,3.10
2022-10-05T22:56:34.516Z,3.10
2022-10-05T22:59:02.570Z,3.50
2022-10-05T23:01:30.669Z,3.30
2022-10-05T23:03:58.913Z,2.50
2022-10-05T23:06:27.142Z,2.70
2022-10-05T23:08:55.271Z,3.90
2022-10-05T23:11:26.302Z,3.20
2022-10-05T23:13:56.973Z,3.50
2022-10-05T23:16:27.550Z,2.70
2022-10-05T23:18:56.158Z,2.80
2022-10-05T23:21:27.189Z,2.90
2022-10-05T23:23:55.912Z,3.70
2022-10-05T23:26:25.063Z,3.30
2022-10-05T23:28:53.501Z,3.10
2022-10-05T23:31:25.321Z,2.80
2022-10-05T23:33:53.887Z,3.20
2022-10-05T23:36:24.177Z,2.60
2022-10-05T23:38:52.634Z,3.20
2022-10-05T23:41:21.058Z,3.30
2022-10-05T23:43:49.555Z,3.00
2022-10-05T23:46:18.179Z,2.90
2022-10-05T23:48:46.299Z,2.70
2022-10-05T23:51:15.615Z,3.20
2022-10-05T23:53:44.048Z,2.50
2022-10-05T23:56:13.081Z,2.70
2022-10-05T23:58:41.175Z,3.20
